Time;durP1;ratioP1;P1;durP2;ratioP2;P2;SDS_P1;SDS_P2;PMS_P1;PMS_P2;Temp;Humidity;BMP_temperature;BMP_pressure;BME280_temperature;BME280_humidity;BME280_pressure;Samples;Min_cycle;Max_cycle;Signal;HPM_P1;HPM_P2
2023/01/30 00:01:25;;;;;;;52.17;28.93;;;2.60;99.90;;;;;;5014757;28;20738;-63
2023/01/30 00:03:51;;;;;;;51.70;28.23;;;2.60;99.90;;;;;;5015015;28;20188;-64
2023/01/30 00:06:17;;;;;;;46.20;26.33;;;2.60;99.90;;;;;;5014951;28;20191;-63
2023/01/30 00:08:43;;;;;;;55.57;30.43;;;2.60;99.90;;;;;;5014637;28;20216;-63
2023/01/30 00:11:11;;;;;;;50.90;29.17;;;2.60;99.90;;;;;;5014456;28;20687;-64
2023/01/30 00:13:38;;;;;;;54.10;28.67;;;2.70;99.90;;;;;;5014540;28;20195;-64
2023/01/30 00:16:04;;;;;;;49.57;27.43;;;2.70;99.90;;;;;;5020520;28;20558;-64
2023/01/30 00:18:30;;;;;;;57.47;29.03;;;2.70;99.90;;;;;;4995160;28;20580;-64
2023/01/30 00:21:00;;;;;;;49.50;29.27;;;2.70;99.90;;;;;;4995018;28;20199;-63
2023/01/30 00:23:28;;;;;;;57.33;29.93;;;2.70;99.90;;;;;;5009953;28;20239;-63
2023/01/30 00:25:54;;;;;;;53.20;29.70;;;2.70;99.90;;;;;;4994764;28;20641;-63
2023/01/30 00:28:20;;;;;;;53.83;28.03;;;2.70;99.90;;;;;;4995027;28;20173;-64
2023/01/30 00:30:54;;;;;;;52.90;29.73;;;2.80;99.90;;;;;;4995945;28;20230;-64
2023/01/30 00:33:21;;;;;;;67.60;31.77;;;2.70;99.90;;;;;;4996708;28;20193;-64
2023/01/30 00:35:50;;;;;;;58.60;29.63;;;2.80;99.90;;;;;;4995761;28;20318;-64
2023/01/30 00:38:16;;;;;;;65.20;32.17;;;2.80;99.90;;;;;;4995778;28;20724;-63
2023/01/30 00:40:43;;;;;;;60.77;30.33;;;2.80;99.90;;;;;;4994990;28;20187;-64
2023/01/30 00:48:44;;;;;;;53.43;29.30;;;2.80;99.90;;;;;;5014317;28;20175;-63
2023/01/30 00:51:09;;;;;;;59.67;31.00;;;2.80;99.90;;;;;;5014154;28;20199;-63
2023/01/30 00:53:35;;;;;;;55.03;28.93;;;2.90;99.90;;;;;;5013806;28;20206;-63
2023/01/30 00:56:01;;;;;;;50.77;28.47;;;2.90;99.90;;;;;;5014126;28;20655;-63
2023/01/30 00:58:27;;;;;;;55.37;29.67;;;2.90;99.90;;;;;;5014023;28;20172;-63
2023/01/30 01:00:54;;;;;;;55.37;30.23;;;2.90;99.90;;;;;;5013429;28;20192;-63
2023/01/30 01:03:20;;;;;;;54.33;30.73;;;3.00;99.90;;;;;;5012469;28;20264;-63
2023/01/30 01:05:46;;;;;;;55.43;29.77;;;3.10;99.90;;;;;;5013775;28;20263;-63
2023/01/30 01:08:12;;;;;;;48.93;28.73;;;3.10;99.90;;;;;;5012419;28;20184;-64
2023/01/30 01:10:37;;;;;;;61.40;30.30;;;3.10;99.90;;;;;;5013612;28;20229;-64
2023/01/30 01:13:05;;;;;;;45.07;27.47;;;3.10;99.90;;;;;;5013558;28;20622;-64
2023/01/30 01:15:32;;;;;;;54.03;27.73;;;3.20;99.90;;;;;;5013395;28;20188;-64
2023/01/30 01:17:57;;;;;;;53.83;28.70;;;3.20;99.90;;;;;;5028767;28;20257;-64
2023/01/30 01:20:23;;;;;;;55.33;28.90;;;3.30;99.90;;;;;;5014164;28;20648;-64
2023/01/30 01:22:54;;;;;;;54.27;28.47;;;3.30;99.90;;;;;;5019736;28;20203;-64
2023/01/30 01:25:21;;;;;;;53.33;29.13;;;3.30;99.90;;;;;;5020360;28;20171;-64
2023/01/30 01:27:47;;;;;;;53.93;28.03;;;3.30;99.90;;;;;;5035283;28;20234;-64
2023/01/30 01:30:14;;;;;;;47.67;27.30;;;3.40;99.90;;;;;;5018649;28;20183;-64
2023/01/30 01:32:40;;;;;;;53.90;28.07;;;3.40;99.90;;;;;;5019834;28;20242;-64
2023/01/30 01:35:06;;;;;;;53.83;27.40;;;3.40;99.90;;;;;;5018716;28;20269;-64
2023/01/30 01:37:31;;;;;;;50.27;28.13;;;3.40;99.90;;;;;;5018659;28;20176;-64
2023/01/30 01:42:41;;;;;;;51.10;29.73;;;3.40;99.90;;;;;;5020117;28;20225;-62
2023/01/30 01:45:15;;;;;;;48.60;26.20;;;3.50;99.90;;;;;;5019920;28;20572;-65
2023/01/30 01:48:07;;;;;;;47.93;27.50;;;3.50;99.90;;;;;;5020230;28;20191;-63
2023/01/30 01:50:43;;;;;;;49.20;28.33;;;3.60;99.90;;;;;;5019879;28;20266;-65
2023/01/30 01:53:12;;;;;;;51.27;28.67;;;3.50;99.90;;;;;;5019855;28;20317;-65
2023/01/30 01:55:40;;;;;;;52.67;28.07;;;3.50;99.90;;;;;;5019777;28;20188;-65
2023/01/30 01:58:18;;;;;;;45.37;25.23;;;3.50;99.90;;;;;;5020149;28;20628;-66
2023/01/30 02:00:45;;;;;;;49.43;28.20;;;3.50;99.90;;;;;;5019546;28;20674;-66
2023/01/30 02:03:16;;;;;;;57.07;29.63;;;3.50;99.90;;;;;;5020338;28;20184;-65
2023/01/30 02:05:47;;;;;;;50.37;27.97;;;3.60;99.90;;;;;;5020226;28;20179;-65
2023/01/30 02:08:24;;;;;;;47.70;26.90;;;3.60;99.90;;;;;;5034924;28;20211;-66
2023/01/30 02:11:06;;;;;;;51.77;27.73;;;3.60;99.90;;;;;;5020009;28;20643;-66
2023/01/30 02:13:32;;;;;;;46.30;26.73;;;3.60;99.90;;;;;;5019903;28;20202;-66
2023/01/30 02:16:00;;;;;;;44.80;24.43;;;3.60;99.90;;;;;;5026616;28;20200;-66
2023/01/30 02:18:27;;;;;;;43.33;25.17;;;3.60;99.90;;;;;;4999915;28;20204;-65
2023/01/30 02:21:05;;;;;;;45.77;25.93;;;3.70;99.90;;;;;;4999891;28;20535;-65
2023/01/30 02:23:42;;;;;;;44.13;25.47;;;3.70;99.90;;;;;;5000264;28;20172;-65
2023/01/30 02:26:28;;;;;;;46.83;25.33;;;3.70;99.90;;;;;;4999813;28;20176;-65
2023/01/30 02:29:38;;;;;;;44.00;25.70;;;3.70;99.90;;;;;;4998649;28;20184;-65
2023/01/30 02:32:22;;;;;;;40.67;24.70;;;3.70;99.90;;;;;;4999021;28;20211;-66
2023/01/30 02:35:17;;;;;;;44.37;26.13;;;3.70;99.90;;;;;;4997111;28;20165;-65
2023/01/30 02:38:02;;;;;;;45.23;26.67;;;3.70;99.90;;;;;;4996844;28;20267;-65
2023/01/30 02:40:58;;;;;;;42.37;25.40;;;3.80;99.90;;;;;;4996740;28;20169;-65
2023/01/30 02:43:47;;;;;;;45.20;26.73;;;3.80;99.90;;;;;;4996761;28;20181;-65
2023/01/30 02:46:16;;;;;;;47.70;27.43;;;3.80;99.90;;;;;;4995264;28;20200;-65
2023/01/30 02:48:53;;;;;;;53.73;26.23;;;3.80;99.90;;;;;;4996688;28;20263;-65
2023/01/30 02:51:26;;;;;;;49.80;28.03;;;3.80;99.90;;;;;;4996769;28;20211;-65
2023/01/30 02:53:53;;;;;;;51.97;28.27;;;3.80;99.90;;;;;;4996716;28;20283;-65
2023/01/30 02:56:19;;;;;;;49.67;28.60;;;3.90;99.90;;;;;;4996529;28;20184;-65
2023/01/30 02:58:57;;;;;;;52.87;28.63;;;4.00;99.90;;;;;;4996293;28;20176;-66
2023/01/30 03:01:53;;;;;;;56.00;30.23;;;4.00;99.90;;;;;;4996171;28;20575;-65
2023/01/30 03:04:36;;;;;;;49.53;29.70;;;4.00;99.90;;;;;;4996833;28;20193;-65
2023/01/30 03:07:20;;;;;;;57.07;30.23;;;4.10;99.90;;;;;;4996192;28;20208;-66
2023/01/30 03:09:52;;;;;;;53.50;29.80;;;4.10;99.90;;;;;;4994938;28;20177;-66
2023/01/30 03:12:27;;;;;;;55.27;29.63;;;4.10;99.90;;;;;;4995934;28;20664;-65
2023/01/30 03:15:03;;;;;;;59.73;33.00;;;4.10;99.90;;;;;;4996141;28;20179;-65
2023/01/30 03:17:31;;;;;;;53.17;30.73;;;4.00;99.90;;;;;;4996043;28;20161;-65
2023/01/30 03:19:58;;;;;;;55.50;30.90;;;4.00;99.90;;;;;;4995996;28;20172;-65
2023/01/30 03:22:23;;;;;;;52.27;30.80;;;4.00;99.90;;;;;;4995918;28;20204;-65
2023/01/30 03:24:52;;;;;;;57.63;31.70;;;4.00;99.90;;;;;;4996053;28;20188;-65
2023/01/30 03:27:19;;;;;;;56.77;31.50;;;4.10;99.90;;;;;;4996116;28;20173;-65
2023/01/30 03:29:44;;;;;;;60.63;30.73;;;4.10;99.90;;;;;;4995735;28;20177;-65
2023/01/30 03:32:10;;;;;;;56.87;31.07;;;4.10;99.90;;;;;;4995620;28;20302;-66
2023/01/30 03:34:36;;;;;;;55.80;30.10;;;4.10;99.90;;;;;;4996042;28;20168;-65
2023/01/30 03:37:03;;;;;;;55.30;29.40;;;4.10;99.90;;;;;;4995844;28;20173;-66
2023/01/30 03:39:29;;;;;;;53.93;29.03;;;4.10;99.90;;;;;;4995869;28;20175;-66
2023/01/30 03:41:55;;;;;;;64.47;30.43;;;4.20;99.90;;;;;;4996130;28;20188;-67
2023/01/30 03:44:21;;;;;;;48.47;29.10;;;4.20;99.90;;;;;;4995080;28;20553;-65
2023/01/30 03:46:46;;;;;;;55.43;29.97;;;4.20;99.90;;;;;;5009991;28;20251;-66
2023/01/30 03:49:12;;;;;;;50.77;29.30;;;4.20;99.90;;;;;;5015042;28;20247;-66
2023/01/30 03:51:38;;;;;;;53.73;30.00;;;4.20;99.90;;;;;;5015243;28;20200;-65
2023/01/30 03:54:04;;;;;;;59.03;31.77;;;4.20;99.90;;;;;;5015294;28;20282;-65
2023/01/30 03:56:30;;;;;;;60.90;30.47;;;4.20;99.90;;;;;;5014970;28;20171;-65
2023/01/30 03:58:56;;;;;;;65.07;31.20;;;4.10;99.90;;;;;;5029910;28;20593;-66
2023/01/30 04:01:21;;;;;;;52.80;29.50;;;4.10;99.90;;;;;;5013330;28;20726;-65
2023/01/30 04:03:47;;;;;;;57.50;31.30;;;4.10;99.90;;;;;;5013452;28;20180;-65
2023/01/30 04:06:13;;;;;;;57.70;30.23;;;4.10;99.90;;;;;;5013419;28;20191;-65
2023/01/30 04:08:39;;;;;;;55.67;30.57;;;4.10;99.90;;;;;;5014643;28;20202;-66
2023/01/30 04:11:04;;;;;;;53.53;30.40;;;4.20;99.90;;;;;;5015077;28;20222;-65
2023/01/30 04:13:30;;;;;;;52.47;29.47;;;4.20;99.90;;;;;;5014883;28;20279;-65
2023/01/30 04:16:17;;;;;;;66.00;31.20;;;4.20;99.90;;;;;;5014423;28;20214;-65
2023/01/30 04:18:44;;;;;;;54.10;31.60;;;4.20;99.90;;;;;;5015057;28;20226;-65
2023/01/30 04:21:10;;;;;;;62.47;30.67;;;4.20;99.90;;;;;;5014410;28;20191;-65
2023/01/30 04:23:36;;;;;;;49.83;28.33;;;4.20;99.90;;;;;;5014414;28;20176;-65
2023/01/30 04:26:01;;;;;;;52.73;28.67;;;4.20;99.90;;;;;;5014876;28;20594;-65
2023/01/30 04:28:27;;;;;;;52.10;30.93;;;4.20;99.90;;;;;;5014514;28;20180;-65
2023/01/30 04:30:53;;;;;;;54.90;27.67;;;4.30;99.90;;;;;;5012847;28;20180;-65
2023/01/30 04:33:19;;;;;;;52.67;30.10;;;4.30;99.90;;;;;;5014106;28;20204;-65
2023/01/30 04:35:53;;;;;;;60.60;30.67;;;4.30;99.90;;;;;;5014206;28;20241;-65
2023/01/30 04:38:19;;;;;;;51.03;28.07;;;4.30;99.90;;;;;;5014075;28;20168;-65
2023/01/30 04:40:48;;;;;;;53.33;28.03;;;4.30;99.90;;;;;;5014492;28;20160;-65
2023/01/30 04:43:14;;;;;;;48.10;27.47;;;4.30;99.90;;;;;;5014311;28;20179;-65
2023/01/30 04:45:47;;;;;;;45.60;25.67;;;4.30;99.90;;;;;;5013855;28;20250;-65
2023/01/30 04:48:14;;;;;;;49.37;27.37;;;4.40;99.90;;;;;;5029114;28;20258;-65
2023/01/30 04:50:41;;;;;;;50.80;27.73;;;4.30;99.90;;;;;;5013999;28;20172;-65
2023/01/30 04:53:08;;;;;;;53.03;28.00;;;4.30;99.90;;;;;;5029020;28;20208;-65
2023/01/30 04:55:34;;;;;;;46.13;28.17;;;4.30;99.90;;;;;;5013408;28;20656;-65
2023/01/30 04:58:00;;;;;;;48.20;27.40;;;4.30;99.90;;;;;;5014136;28;20166;-65
2023/01/30 05:00:26;;;;;;;41.83;24.87;;;4.30;99.90;;;;;;5013577;28;20539;-64
2023/01/30 05:02:54;;;;;;;45.40;26.03;;;4.40;99.90;;;;;;5013767;28;20200;-65
2023/01/30 05:05:21;;;;;;;43.83;25.47;;;4.40;99.90;;;;;;5014136;28;20176;-65
2023/01/30 05:07:47;;;;;;;46.33;26.63;;;4.40;99.90;;;;;;5013600;28;20222;-65
2023/01/30 05:10:12;;;;;;;41.27;25.20;;;4.30;99.90;;;;;;5013751;28;20164;-65
2023/01/30 05:12:38;;;;;;;40.90;25.27;;;4.30;99.90;;;;;;5028658;28;20238;-65
2023/01/30 05:15:05;;;;;;;45.43;22.90;;;4.40;99.90;;;;;;5014115;28;20298;-65
2023/01/30 05:17:31;;;;;;;39.03;23.80;;;4.40;99.90;;;;;;5013645;28;20175;-65
2023/01/30 05:19:57;;;;;;;42.63;23.73;;;4.40;99.90;;;;;;5013561;28;20267;-65
2023/01/30 05:22:23;;;;;;;37.20;22.70;;;4.40;99.90;;;;;;5013777;28;20293;-66
2023/01/30 05:24:49;;;;;;;36.73;22.50;;;4.40;99.90;;;;;;5013579;28;20183;-65
2023/01/30 05:27:14;;;;;;;36.43;21.43;;;4.40;99.90;;;;;;5013599;28;20185;-65
2023/01/30 05:29:40;;;;;;;35.87;22.20;;;4.50;99.90;;;;;;5013564;28;20578;-66
2023/01/30 05:32:06;;;;;;;38.13;21.57;;;4.50;99.90;;;;;;5013954;28;20270;-62
2023/01/30 05:34:32;;;;;;;35.60;22.50;;;4.50;99.90;;;;;;5013618;28;20203;-62
2023/01/30 05:36:57;;;;;;;34.57;20.87;;;4.60;99.90;;;;;;5012242;28;20191;-62
2023/01/30 05:39:23;;;;;;;28.27;18.97;;;4.60;99.90;;;;;;5013936;28;20180;-62
2023/01/30 05:41:49;;;;;;;35.17;20.20;;;4.60;99.90;;;;;;5013375;28;20536;-62
2023/01/30 05:44:15;;;;;;;31.97;20.00;;;4.60;99.90;;;;;;5014269;28;20520;-62
2023/01/30 05:46:40;;;;;;;30.57;19.53;;;4.60;99.90;;;;;;5013322;28;20294;-61
2023/01/30 05:49:06;;;;;;;33.27;20.53;;;4.60;99.90;;;;;;5013402;28;20186;-62
2023/01/30 05:51:32;;;;;;;31.77;19.57;;;4.70;99.90;;;;;;5012114;28;20206;-62
2023/01/30 05:53:58;;;;;;;29.53;20.07;;;4.70;99.90;;;;;;5013303;28;20208;-62
2023/01/30 05:56:24;;;;;;;29.37;19.13;;;4.70;99.90;;;;;;5013252;28;20579;-62
2023/01/30 05:58:54;;;;;;;31.83;18.53;;;4.70;99.90;;;;;;5013162;28;20195;-62
2023/01/30 06:01:21;;;;;;;27.73;18.70;;;4.70;99.90;;;;;;5013031;28;20202;-62
2023/01/30 06:03:48;;;;;;;28.57;17.83;;;4.70;99.90;;;;;;5013345;28;20175;-62
2023/01/30 06:06:13;;;;;;;25.13;17.67;;;4.70;99.90;;;;;;5013228;28;20270;-62
2023/01/30 06:08:40;;;;;;;26.40;17.23;;;4.70;99.90;;;;;;5016278;28;20309;-62
2023/01/30 06:11:12;;;;;;;27.97;18.27;;;4.70;99.90;;;;;;5016795;28;20222;-62
2023/01/30 06:13:38;;;;;;;25.83;18.10;;;4.70;99.90;;;;;;5032019;28;20231;-62
2023/01/30 06:16:08;;;;;;;28.30;17.60;;;4.70;99.90;;;;;;5023060;28;20188;-62
2023/01/30 06:18:34;;;;;;;31.83;17.97;;;4.70;99.90;;;;;;4997950;28;20227;-62
2023/01/30 06:21:01;;;;;;;26.73;17.93;;;4.80;99.90;;;;;;4995958;28;20180;-63
2023/01/30 06:23:27;;;;;;;33.97;19.37;;;4.80;99.90;;;;;;5012337;28;20198;-62
2023/01/30 06:25:54;;;;;;;29.03;19.23;;;4.90;99.90;;;;;;4997026;28;20223;-62
2023/01/30 06:28:21;;;;;;;34.87;20.30;;;4.90;99.90;;;;;;4997004;28;20200;-62
2023/01/30 06:30:48;;;;;;;35.90;21.03;;;5.00;99.90;;;;;;4996916;28;20688;-62
2023/01/30 06:33:13;;;;;;;33.83;20.67;;;5.00;99.90;;;;;;4996798;28;20259;-62
2023/01/30 06:35:41;;;;;;;33.23;21.73;;;5.00;99.90;;;;;;5011950;28;20645;-62
2023/01/30 06:38:12;;;;;;;34.87;22.87;;;5.00;99.90;;;;;;5011885;28;20204;-62
2023/01/30 06:40:38;;;;;;;37.93;24.20;;;5.10;99.90;;;;;;4997286;28;20184;-61
2023/01/30 06:43:04;;;;;;;46.13;25.57;;;5.10;99.90;;;;;;4996553;28;20200;-62
2023/01/30 06:45:30;;;;;;;42.03;24.87;;;5.30;99.90;;;;;;5000859;28;20184;-62
2023/01/30 06:47:56;;;;;;;42.83;26.13;;;5.30;99.90;;;;;;5014750;28;20237;-62
2023/01/30 06:50:25;;;;;;;40.73;26.87;;;5.30;99.90;;;;;;5016119;28;20172;-62
2023/01/30 06:52:52;;;;;;;44.10;28.17;;;5.40;99.90;;;;;;5016041;28;20235;-62
2023/01/30 06:55:20;;;;;;;38.33;27.33;;;5.40;99.90;;;;;;5015960;28;20692;-62
2023/01/30 06:57:46;;;;;;;45.03;28.27;;;5.40;99.90;;;;;;5015947;28;20310;-62
2023/01/30 07:00:14;;;;;;;44.27;28.17;;;5.40;99.90;;;;;;5015803;28;20191;-62
2023/01/30 07:02:40;;;;;;;43.63;27.90;;;5.50;99.90;;;;;;5015717;28;20204;-62
2023/01/30 07:05:08;;;;;;;43.93;26.20;;;5.50;99.90;;;;;;5014644;28;20180;-63
2023/01/30 07:07:34;;;;;;;42.20;27.20;;;5.50;99.90;;;;;;5015892;28;20261;-63
2023/01/30 07:10:00;;;;;;;39.40;26.60;;;5.50;99.90;;;;;;5015978;28;20545;-63
2023/01/30 07:12:26;;;;;;;47.70;28.07;;;5.60;99.90;;;;;;5015564;28;20230;-63
2023/01/30 07:14:53;;;;;;;42.30;26.47;;;5.60;99.90;;;;;;5016172;28;20172;-62
2023/01/30 07:17:20;;;;;;;39.33;26.63;;;5.60;99.90;;;;;;5015497;28;20188;-63
2023/01/30 07:19:46;;;;;;;42.80;28.03;;;5.70;99.90;;;;;;5014682;28;20176;-63
2023/01/30 07:22:12;;;;;;;40.53;27.33;;;5.70;99.90;;;;;;5015514;28;20249;-63
2023/01/30 07:24:39;;;;;;;39.23;28.53;;;5.70;99.90;;;;;;5015493;28;20267;-63
2023/01/30 07:27:09;;;;;;;40.57;26.10;;;5.70;99.90;;;;;;5030625;28;20184;-63
2023/01/30 07:29:36;;;;;;;39.57;26.43;;;5.80;99.90;;;;;;5015640;28;20248;-63
2023/01/30 07:32:03;;;;;;;42.07;26.93;;;5.80;99.90;;;;;;5015172;28;20207;-63
2023/01/30 07:34:28;;;;;;;41.83;26.00;;;5.80;99.90;;;;;;5015399;28;20208;-63
2023/01/30 07:36:54;;;;;;;35.47;24.97;;;5.80;99.90;;;;;;5015235;28;20175;-63
2023/01/30 07:39:20;;;;;;;39.03;24.77;;;5.80;99.90;;;;;;5015433;28;20210;-63
2023/01/30 07:41:46;;;;;;;34.47;23.03;;;5.80;99.90;;;;;;5013878;28;20199;-64
2023/01/30 07:44:12;;;;;;;35.23;26.83;;;5.90;99.90;;;;;;5015374;28;20179;-62
2023/01/30 07:46:38;;;;;;;33.73;24.43;;;5.90;99.90;;;;;;5014868;28;20191;-63
2023/01/30 07:49:05;;;;;;;40.43;25.73;;;5.90;99.90;;;;;;5015008;28;20199;-63
2023/01/30 07:51:32;;;;;;;31.73;24.00;;;5.90;99.90;;;;;;5013620;28;20204;-62
2023/01/30 07:53:59;;;;;;;36.37;22.97;;;5.90;99.90;;;;;;5014892;28;20234;-63
2023/01/30 07:56:25;;;;;;;37.83;22.50;;;6.00;99.90;;;;;;5014856;28;20171;-63
2023/01/30 07:58:53;;;;;;;28.97;22.13;;;6.00;99.90;;;;;;5014853;28;20171;-64
2023/01/30 08:01:18;;;;;;;36.03;23.43;;;6.00;99.90;;;;;;5029804;28;20219;-63
2023/01/30 08:03:45;;;;;;;36.00;21.87;;;6.00;99.90;;;;;;5015019;28;20183;-63
2023/01/30 08:06:12;;;;;;;30.60;20.50;;;6.00;99.90;;;;;;5014988;28;20180;-63
2023/01/30 08:08:38;;;;;;;29.17;19.77;;;6.00;99.90;;;;;;5014722;28;20179;-63
2023/01/30 08:11:04;;;;;;;34.37;18.40;;;6.00;99.90;;;;;;5014587;28;20282;-63
2023/01/30 08:13:30;;;;;;;30.90;18.60;;;6.00;99.90;;;;;;5014745;28;20282;-63
2023/01/30 08:15:59;;;;;;;25.87;17.20;;;6.00;99.90;;;;;;5014389;28;20180;-63
2023/01/30 08:18:24;;;;;;;26.37;16.57;;;6.00;99.90;;;;;;5014428;28;20183;-63
2023/01/30 08:20:50;;;;;;;19.20;14.47;;;6.00;99.90;;;;;;5014580;28;20532;-63
2023/01/30 08:23:16;;;;;;;23.77;14.27;;;6.10;99.90;;;;;;5013173;28;20194;-62
2023/01/30 08:25:42;;;;;;;27.33;14.53;;;6.10;99.90;;;;;;5014367;28;20540;-63
2023/01/30 08:28:07;;;;;;;21.73;14.50;;;6.10;99.90;;;;;;5014584;28;20252;-63
2023/01/30 08:30:33;;;;;;;24.83;14.03;;;6.10;99.90;;;;;;5012948;28;20274;-63
2023/01/30 08:32:59;;;;;;;20.73;12.47;;;6.10;99.90;;;;;;5013968;28;20217;-63
2023/01/30 08:35:25;;;;;;;22.33;11.77;;;6.20;99.90;;;;;;5014283;28;20663;-63
2023/01/30 08:37:50;;;;;;;17.40;10.90;;;6.20;99.90;;;;;;5012920;28;20183;-63
2023/01/30 08:40:16;;;;;;;23.57;11.60;;;6.20;99.90;;;;;;5012880;28;20551;-63
2023/01/30 08:42:45;;;;;;;20.77;10.87;;;6.20;99.90;;;;;;5012809;28;20294;-63
2023/01/30 08:45:11;;;;;;;16.80;10.27;;;6.20;99.90;;;;;;5014013;28;20184;-63
2023/01/30 08:47:36;;;;;;;20.03;9.63;;;6.20;99.90;;;;;;5014067;28;20190;-63
2023/01/30 08:50:04;;;;;;;21.13;9.93;;;6.20;99.90;;;;;;5014380;28;20184;-64
2023/01/30 08:52:31;;;;;;;23.40;10.37;;;6.20;99.90;;;;;;5015871;28;20214;-63
2023/01/30 08:54:57;;;;;;;23.23;9.63;;;6.20;99.90;;;;;;5014577;28;20171;-66
2023/01/30 08:57:23;;;;;;;18.70;8.30;;;6.20;99.90;;;;;;5014058;28;20180;-67
2023/01/30 08:59:50;;;;;;;18.27;8.80;;;6.20;99.90;;;;;;5013871;28;20656;-65
2023/01/30 09:02:16;;;;;;;16.87;8.20;;;6.20;99.90;;;;;;5012336;28;20200;-65
2023/01/30 09:04:41;;;;;;;21.70;9.23;;;6.20;99.90;;;;;;5013998;28;20259;-65
2023/01/30 09:07:07;;;;;;;18.40;8.53;;;6.20;99.90;;;;;;5013768;28;20178;-65
2023/01/30 09:09:33;;;;;;;14.80;8.43;;;6.30;99.90;;;;;;5028838;28;20187;-65
2023/01/30 09:11:59;;;;;;;15.83;8.10;;;6.20;99.90;;;;;;5014267;28;20282;-65
2023/01/30 09:14:25;;;;;;;10.10;7.53;;;6.30;99.90;;;;;;5013951;28;20210;-65
2023/01/30 09:16:57;;;;;;;19.03;7.03;;;6.30;99.90;;;;;;5013609;28;20211;-65
2023/01/30 09:19:25;;;;;;;13.93;7.60;;;6.30;99.90;;;;;;5013630;28;20163;-65
2023/01/30 09:21:52;;;;;;;20.43;8.87;;;6.30;99.90;;;;;;5013510;28;20195;-65
2023/01/30 09:24:18;;;;;;;19.10;8.10;;;6.30;99.90;;;;;;5013645;28;20663;-65
2023/01/30 09:26:44;;;;;;;19.40;8.23;;;6.30;99.90;;;;;;5013820;28;20267;-65
2023/01/30 09:29:14;;;;;;;16.50;8.27;;;6.30;99.90;;;;;;5028665;28;20724;-65
2023/01/30 09:31:40;;;;;;;13.80;7.57;;;6.30;99.90;;;;;;5013267;28;20680;-65
2023/01/30 09:34:06;;;;;;;27.03;8.30;;;6.30;99.90;;;;;;5013426;28;20246;-65
2023/01/30 09:36:32;;;;;;;11.03;7.13;;;6.20;99.90;;;;;;5028687;28;20709;-65
2023/01/30 09:38:58;;;;;;;14.77;7.47;;;6.30;99.90;;;;;;5013477;28;20179;-64
2023/01/30 09:41:27;;;;;;;12.27;7.57;;;6.20;99.90;;;;;;5013388;28;20679;-65
2023/01/30 09:43:52;;;;;;;18.27;7.17;;;6.30;99.90;;;;;;5015805;28;20644;-65
2023/01/30 09:46:32;;;;;;;15.63;7.57;;;6.30;99.90;;;;;;5005168;28;20203;-65
2023/01/30 09:49:19;;;;;;;16.13;7.73;;;6.20;99.90;;;;;;4997717;28;20177;-64
2023/01/30 09:52:29;;;;;;;19.07;8.10;;;6.30;99.90;;;;;;4997726;28;20192;-65
2023/01/30 09:55:01;;;;;;;18.40;8.60;;;6.40;99.90;;;;;;4996257;28;20220;-65
2023/01/30 09:57:28;;;;;;;18.33;8.00;;;6.50;99.90;;;;;;4998001;28;20188;-65
2023/01/30 10:00:11;;;;;;;16.77;7.50;;;6.50;99.90;;;;;;4997365;28;20215;-65
2023/01/30 10:03:09;;;;;;;15.40;7.57;;;6.40;99.90;;;;;;4997299;28;20200;-65
2023/01/30 10:05:43;;;;;;;20.10;7.30;;;6.30;99.90;;;;;;4997447;28;20586;-65
2023/01/30 10:08:23;;;;;;;17.20;7.63;;;6.30;99.90;;;;;;4997348;28;20638;-65
2023/01/30 10:10:57;;;;;;;18.13;7.63;;;6.20;99.90;;;;;;4997294;28;20165;-65
2023/01/30 10:13:59;;;;;;;19.00;7.47;;;6.20;99.90;;;;;;4997504;28;20188;-65
2023/01/30 10:16:43;;;;;;;13.70;6.80;;;6.20;99.90;;;;;;5008799;28;20611;-66
2023/01/30 10:19:20;;;;;;;17.07;7.77;;;6.20;99.90;;;;;;5016759;28;20243;-65
2023/01/30 10:21:58;;;;;;;13.60;7.73;;;6.20;99.90;;;;;;5016585;28;20187;-65
2023/01/30 10:24:35;;;;;;;19.97;7.50;;;6.20;99.90;;;;;;5017190;28;20258;-65
2023/01/30 10:27:02;;;;;;;24.77;8.07;;;6.20;99.90;;;;;;5032652;28;20164;-65
2023/01/30 10:29:38;;;;;;;17.67;8.17;;;6.30;99.90;;;;;;5016521;28;20172;-65
2023/01/30 10:32:14;;;;;;;18.17;7.57;;;6.30;99.90;;;;;;5016514;28;20191;-65
2023/01/30 10:34:46;;;;;;;23.67;6.73;;;6.40;99.90;;;;;;5016571;28;20197;-65
2023/01/30 10:37:12;;;;;;;17.97;6.53;;;6.40;99.90;;;;;;5031651;28;20168;-65
2023/01/30 10:39:50;;;;;;;17.03;6.90;;;6.40;99.90;;;;;;5016388;28;20190;-64
2023/01/30 10:42:21;;;;;;;15.10;7.27;;;6.40;99.90;;;;;;5015557;28;20199;-65
2023/01/30 10:44:48;;;;;;;17.73;7.63;;;6.40;99.90;;;;;;5016576;28;20156;-65
2023/01/30 10:47:13;;;;;;;15.47;7.30;;;6.40;99.90;;;;;;5031235;28;20183;-65
2023/01/30 10:50:21;;;;;;;21.67;7.53;;;6.40;99.90;;;;;;5016155;28;20640;-65
2023/01/30 10:53:16;;;;;;;18.57;7.53;;;6.40;99.90;;;;;;5015476;28;20223;-65
2023/01/30 10:55:47;;;;;;;22.20;8.60;;;6.30;99.90;;;;;;5015570;28;20176;-64
2023/01/30 10:58:35;;;;;;;15.47;7.47;;;6.30;99.90;;;;;;5016062;28;20164;-65
2023/01/30 11:01:10;;;;;;;12.03;6.57;;;6.30;99.90;;;;;;5030985;28;20290;-65
2023/01/30 11:03:41;;;;;;;19.37;7.60;;;6.30;99.90;;;;;;5016218;28;20197;-64
2023/01/30 11:06:10;;;;;;;18.63;6.83;;;6.30;99.90;;;;;;5015897;28;20172;-65
2023/01/30 11:08:36;;;;;;;21.03;7.17;;;6.30;99.90;;;;;;5015830;28;20702;-65
2023/01/30 11:11:25;;;;;;;18.80;6.93;;;6.30;99.90;;;;;;5015715;28;20277;-65
2023/01/30 11:14:01;;;;;;;19.83;7.43;;;6.30;99.90;;;;;;5015964;28;20203;-65
2023/01/30 11:16:27;;;;;;;23.33;6.97;;;6.30;99.90;;;;;;5018758;28;20258;-65
2023/01/30 11:18:52;;;;;;;20.10;7.23;;;6.30;99.90;;;;;;4996532;28;20214;-65
2023/01/30 11:21:30;;;;;;;18.90;6.60;;;6.30;99.90;;;;;;4994697;28;20200;-65
2023/01/30 11:23:56;;;;;;;18.10;6.63;;;6.30;99.90;;;;;;4994680;28;20636;-65
2023/01/30 11:26:32;;;;;;;21.83;7.47;;;6.40;99.90;;;;;;4995888;28;20177;-65
2023/01/30 11:28:58;;;;;;;21.13;6.93;;;6.40;99.90;;;;;;4996131;28;20207;-65
2023/01/30 11:31:29;;;;;;;21.17;7.57;;;6.40;99.90;;;;;;4995872;28;20532;-65
2023/01/30 11:34:02;;;;;;;21.07;7.80;;;6.40;99.90;;;;;;4995705;28;20206;-65
2023/01/30 11:36:37;;;;;;;16.10;6.97;;;6.40;99.90;;;;;;4995896;28;20179;-65
2023/01/30 11:39:11;;;;;;;16.93;7.60;;;6.40;99.90;;;;;;4995951;28;20156;-66
2023/01/30 11:41:41;;;;;;;21.47;7.37;;;6.50;99.90;;;;;;4995515;28;20188;-65
2023/01/30 11:44:09;;;;;;;14.77;7.20;;;6.40;99.90;;;;;;4996023;28;20243;-68
2023/01/30 11:46:39;;;;;;;20.97;7.20;;;6.40;99.90;;;;;;5008331;28;20202;-66
2023/01/30 11:49:14;;;;;;;21.17;7.67;;;6.40;99.90;;;;;;5015097;28;20176;-67
2023/01/30 11:51:43;;;;;;;21.63;7.33;;;6.40;99.90;;;;;;5030205;28;20203;-66
2023/01/30 11:54:17;;;;;;;19.23;7.47;;;6.40;99.90;;;;;;5015165;28;20195;-66
2023/01/30 11:56:51;;;;;;;18.73;7.20;;;6.40;99.90;;;;;;5015260;28;20243;-67
2023/01/30 11:59:37;;;;;;;19.47;7.70;;;6.40;99.90;;;;;;5015553;28;20561;-68
2023/01/30 12:02:21;;;;;;;17.70;6.30;;;6.50;99.90;;;;;;5014675;28;20219;-68
2023/01/30 12:04:53;;;;;;;20.07;7.93;;;6.50;99.90;;;;;;5013100;28;20555;-67
2023/01/30 12:07:28;;;;;;;20.33;7.53;;;6.50;99.90;;;;;;5030250;28;20230;-64
2023/01/30 12:09:55;;;;;;;20.37;7.40;;;6.60;99.90;;;;;;5015254;28;20191;-64
2023/01/30 12:12:29;;;;;;;17.60;6.83;;;6.60;99.90;;;;;;5015591;28;20668;-64
2023/01/30 12:15:21;;;;;;;21.00;6.60;;;6.70;99.90;;;;;;5015295;28;20643;-65
2023/01/30 12:18:17;;;;;;;24.50;7.80;;;6.70;99.90;;;;;;5015923;28;20644;-64
2023/01/30 12:20:58;;;;;;;16.43;6.73;;;6.70;99.90;;;;;;5010427;28;20581;-65
2023/01/30 12:23:51;;;;;;;19.83;7.23;;;6.70;99.90;;;;;;5016413;28;20160;-65
2023/01/30 12:26:28;;;;;;;19.47;7.03;;;6.60;99.90;;;;;;5014970;28;20164;-64
2023/01/30 12:29:15;;;;;;;17.67;7.00;;;6.50;99.90;;;;;;5014668;28;20187;-64
2023/01/30 12:31:45;;;;;;;22.60;7.07;;;6.50;99.90;;;;;;5014098;28;20200;-64
2023/01/30 12:34:11;;;;;;;13.30;6.97;;;6.50;99.90;;;;;;5014833;28;20192;-64
2023/01/30 12:36:42;;;;;;;18.33;6.43;;;6.50;99.90;;;;;;5014281;28;20609;-64
2023/01/30 12:39:31;;;;;;;14.63;7.03;;;6.50;99.90;;;;;;5014201;28;20168;-64
2023/01/30 12:42:26;;;;;;;18.07;6.87;;;6.60;99.90;;;;;;5014739;28;20216;-65
2023/01/30 12:45:10;;;;;;;20.77;6.83;;;6.60;99.90;;;;;;5014744;28;20247;-64
2023/01/30 12:47:58;;;;;;;19.70;6.80;;;6.60;99.90;;;;;;5012713;28;20171;-65
2023/01/30 12:50:56;;;;;;;18.67;6.57;;;6.60;99.90;;;;;;5014028;28;20164;-64
2023/01/30 12:53:30;;;;;;;11.77;6.50;;;6.70;99.90;;;;;;5014517;28;20187;-64
2023/01/30 12:56:01;;;;;;;24.47;7.00;;;6.80;99.90;;;;;;5012729;28;20171;-64
2023/01/30 12:59:11;;;;;;;20.87;6.30;;;6.80;99.90;;;;;;5013890;28;20527;-64
2023/01/30 13:01:54;;;;;;;15.03;6.60;;;6.90;99.90;;;;;;4993043;28;20216;-64
2023/01/30 13:04:38;;;;;;;21.63;7.13;;;7.00;99.90;;;;;;5012729;28;20215;-63
2023/01/30 13:07:25;;;;;;;18.60;6.20;;;7.00;99.90;;;;;;5014282;28;20537;-64